createdAt,value
2019-03-10T00:00:43.935Z,3.20
2019-03-10T00:03:12.872Z,5.67
2019-03-10T00:05:39.924Z,3.92
2019-03-10T00:08:07.950Z,4.65
2019-03-10T00:10:35.658Z,3.55
2019-03-10T00:13:02.699Z,3.95
2019-03-10T00:15:29.752Z,5.45
2019-03-10T00:17:57.104Z,5.58
2019-03-10T00:20:24.173Z,5.22
2019-03-10T00:22:51.209Z,2.70
2019-03-10T00:25:18.558Z,3.83
2019-03-10T00:27:45.617Z,3.87
2019-03-10T00:30:12.658Z,3.70
2019-03-10T00:32:40.030Z,4.37
2019-03-10T00:35:07.076Z,4.05
2019-03-10T00:37:34.122Z,3.20
2019-03-10T00:40:02.481Z,2.98
2019-03-10T00:42:29.614Z,5.87
2019-03-10T00:44:56.645Z,4.72
2019-03-10T00:47:23.700Z,4.40
2019-03-10T00:49:50.979Z,3.60
2019-03-10T00:52:18.338Z,4.65
2019-03-10T00:54:45.697Z,4.03
2019-03-10T00:57:12.746Z,2.60
2019-03-10T00:59:42.221Z,4.47
2019-03-10T01:02:09.600Z,6.35
2019-03-10T01:04:36.639Z,3.62
2019-03-10T01:07:03.929Z,5.03
2019-03-10T01:09:30.969Z,3.90
2019-03-10T01:11:58.305Z,4.28
2019-03-10T01:14:25.665Z,5.83
2019-03-10T01:16:52.967Z,7.00
2019-03-10T01:19:20.287Z,3.50
2019-03-10T01:21:47.338Z,4.00
2019-03-10T01:24:14.671Z,4.70
2019-03-10T01:26:41.721Z,2.35
2019-03-10T01:29:08.769Z,2.05
2019-03-10T01:31:36.122Z,2.95
2019-03-10T01:34:03.152Z,1.85
2019-03-10T01:36:30.538Z,4.75
2019-03-10T01:38:57.846Z,3.83
2019-03-10T01:41:24.882Z,4.00
2019-03-10T01:43:51.934Z,4.95
2019-03-10T01:46:18.979Z,2.35
2019-03-10T01:48:46.118Z,3.20
2019-03-10T01:51:13.425Z,2.65
2019-03-10T01:53:40.781Z,2.87
2019-03-10T01:56:07.826Z,2.87
2019-03-10T01:58:35.185Z,3.02
2019-03-10T02:01:02.297Z,5.85
2019-03-10T02:03:29.691Z,1.52
2019-03-10T02:05:56.722Z,2.65
2019-03-10T02:08:24.111Z,2.37
2019-03-10T02:10:51.141Z,3.92
2019-03-10T02:13:18.498Z,3.70
2019-03-10T02:15:45.779Z,2.00
2019-03-10T02:18:12.902Z,6.08
2019-03-10T02:20:39.952Z,3.42
2019-03-10T02:23:07.307Z,2.55
2019-03-10T02:25:34.610Z,2.22
2019-03-10T02:28:02.015Z,3.25
2019-03-10T02:30:29.050Z,3.60
2019-03-10T02:32:56.343Z,4.87
2019-03-10T02:35:23.450Z,2.17
2019-03-10T02:37:50.826Z,4.12
2019-03-10T02:40:18.120Z,3.40
2019-03-10T02:42:45.543Z,2.25
2019-03-10T02:45:12.889Z,3.85
2019-03-10T02:47:40.196Z,2.10
2019-03-10T02:50:07.223Z,3.83
2019-03-10T02:52:35.346Z,2.87
2019-03-10T02:55:02.392Z,3.17
2019-03-10T02:57:29.429Z,4.05
2019-03-10T02:59:56.539Z,3.45
2019-03-10T03:02:23.594Z,2.92
2019-03-10T03:07:53.749Z,4.45
2019-03-10T03:10:21.049Z,2.37
2019-03-10T03:12:48.123Z,1.30
2019-03-10T03:15:15.451Z,3.70
2019-03-10T03:17:42.808Z,1.62
2019-03-10T03:20:10.162Z,1.82
2019-03-10T03:22:37.206Z,3.20
2019-03-10T03:25:04.343Z,2.62
2019-03-10T03:27:31.714Z,2.45
2019-03-10T03:29:58.774Z,2.92
2019-03-10T03:32:26.123Z,3.65
2019-03-10T03:34:53.180Z,3.35
2019-03-10T03:37:20.222Z,2.30
2019-03-10T03:39:47.590Z,2.80
2019-03-10T03:42:14.624Z,3.27
2019-03-10T03:44:41.986Z,2.72
2019-03-10T03:47:09.328Z,2.75
2019-03-10T03:49:36.683Z,3.05
2019-03-10T03:52:04.036Z,2.37
2019-03-10T03:54:31.349Z,2.50
2019-03-10T03:56:58.428Z,5.22
2019-03-10T03:59:25.453Z,2.17
2019-03-10T04:01:52.466Z,1.62
2019-03-10T04:04:19.790Z,2.67
2019-03-10T04:06:46.821Z,3.75
2019-03-10T04:09:14.194Z,3.35
2019-03-10T04:11:41.496Z,1.90
2019-03-10T04:14:08.623Z,2.45
2019-03-10T04:16:35.659Z,2.70
2019-03-10T04:19:03.223Z,2.22
2019-03-10T04:21:30.238Z,1.77
2019-03-10T04:23:57.288Z,2.25
2019-03-10T04:26:25.598Z,2.00
2019-03-10T04:28:52.929Z,1.70
2019-03-10T04:31:20.209Z,3.67
2019-03-10T04:33:47.593Z,3.62
2019-03-10T04:36:14.574Z,1.50
2019-03-10T04:38:41.616Z,1.10
2019-03-10T04:41:08.670Z,3.92
2019-03-10T04:43:35.969Z,1.57
2019-03-10T04:46:03.290Z,1.40
2019-03-10T04:48:30.338Z,1.98
2019-03-10T04:50:57.711Z,1.45
2019-03-10T04:53:25.018Z,1.15
2019-03-10T04:55:52.401Z,2.50
2019-03-10T04:58:19.684Z,3.47
2019-03-10T05:00:46.735Z,1.27
2019-03-10T05:03:13.783Z,2.75
2019-03-10T05:05:40.841Z,1.82
2019-03-10T05:08:08.174Z,2.02
2019-03-10T05:10:35.227Z,2.30
2019-03-10T05:13:02.557Z,2.40
2019-03-10T05:15:29.610Z,1.37
2019-03-10T05:17:56.977Z,1.35
2019-03-10T05:20:24.031Z,2.27
2019-03-10T05:22:51.069Z,0.70
2019-03-10T05:25:18.411Z,1.05
2019-03-10T05:27:45.449Z,0.80
2019-03-10T05:30:12.817Z,1.15
2019-03-10T05:32:41.318Z,1.57
2019-03-10T05:35:08.648Z,2.20
2019-03-10T05:37:35.769Z,0.90
2019-03-10T05:40:03.891Z,0.90
2019-03-10T05:42:31.247Z,1.92
2019-03-10T05:44:58.302Z,0.90
2019-03-10T05:47:25.337Z,1.25
2019-03-10T05:49:52.389Z,0.80
2019-03-10T05:52:19.429Z,0.80
2019-03-10T05:54:46.483Z,0.93
2019-03-10T05:57:13.824Z,1.10
2019-03-10T05:59:40.857Z,0.85
2019-03-10T06:02:08.226Z,0.82
2019-03-10T06:04:44.323Z,1.30
2019-03-10T06:07:11.641Z,2.95
2019-03-10T06:09:39.013Z,2.05
2019-03-10T06:12:06.375Z,2.62
2019-03-10T06:14:33.705Z,1.87
2019-03-10T06:17:00.756Z,1.20
2019-03-10T06:19:27.800Z,1.00
2019-03-10T06:21:55.240Z,1.47
2019-03-10T06:24:22.531Z,0.75
2019-03-10T06:26:49.582Z,1.12
2019-03-10T06:29:16.623Z,1.62
2019-03-10T06:31:43.919Z,1.77
2019-03-10T06:34:12.356Z,0.70
2019-03-10T06:36:39.410Z,1.00
2019-03-10T06:39:06.450Z,2.95
2019-03-10T06:41:33.803Z,1.25
2019-03-10T06:44:01.124Z,1.20
2019-03-10T06:46:28.180Z,2.52
2019-03-10T06:48:55.559Z,1.20
2019-03-10T06:51:22.907Z,1.50
2019-03-10T06:53:50.260Z,2.45
2019-03-10T06:56:17.634Z,1.87
2019-03-10T06:58:44.969Z,1.37
2019-03-10T07:01:12.349Z,1.92
2019-03-10T07:03:39.685Z,1.55
2019-03-10T07:06:06.741Z,2.80
2019-03-10T07:08:33.785Z,1.10
2019-03-10T07:11:01.148Z,1.20
2019-03-10T07:13:28.180Z,0.70
2019-03-10T07:15:55.539Z,0.75
2019-03-10T07:18:28.866Z,0.93
2019-03-10T07:20:58.081Z,1.07
2019-03-10T07:23:36.474Z,1.10
2019-03-10T07:26:04.493Z,0.90
2019-03-10T07:28:31.885Z,0.82
2019-03-10T07:30:58.943Z,0.80
2019-03-10T07:33:26.272Z,0.70
2019-03-10T07:35:53.642Z,1.62
2019-03-10T07:38:20.672Z,1.10
2019-03-10T07:43:38.105Z,4.03
2019-03-10T07:46:05.169Z,1.10
2019-03-10T07:48:32.543Z,1.57
2019-03-10T07:50:59.600Z,1.47
2019-03-10T07:53:28.053Z,1.12
2019-03-10T07:55:55.163Z,1.92
2019-03-10T07:58:22.222Z,2.05
2019-03-10T08:00:49.621Z,1.30
2019-03-10T08:03:16.959Z,2.17
2019-03-10T08:05:44.073Z,2.15
2019-03-10T08:08:11.467Z,2.02
2019-03-10T08:13:10.699Z,1.67
2019-03-10T08:15:37.996Z,3.47
2019-03-10T08:18:05.038Z,16.97
2019-03-10T08:20:32.452Z,7.60
2019-03-10T08:22:59.819Z,2.67
2019-03-10T08:25:29.038Z,3.40
2019-03-10T08:28:01.647Z,2.52
2019-03-10T08:30:25.117Z,2.50
2019-03-10T08:32:52.510Z,3.10
2019-03-10T08:35:19.841Z,3.12
2019-03-10T08:37:47.851Z,9.20
2019-03-10T08:40:15.193Z,7.25
2019-03-10T08:42:42.242Z,3.80
2019-03-10T08:45:09.570Z,3.42
2019-03-10T08:47:36.926Z,4.30
2019-03-10T08:50:03.972Z,15.25
2019-03-10T08:52:31.330Z,8.73
2019-03-10T08:54:58.367Z,5.17
2019-03-10T08:57:25.733Z,7.00
2019-03-10T08:59:52.778Z,9.80
2019-03-10T09:02:20.084Z,8.18
2019-03-10T09:04:48.718Z,22.77
2019-03-10T09:09:50.411Z,7.47
2019-03-10T09:12:17.755Z,24.02
2019-03-10T09:14:45.105Z,2.75
2019-03-10T09:17:12.482Z,1.62
2019-03-10T09:19:39.523Z,0.60
2019-03-10T09:22:06.575Z,0.70
2019-03-10T09:24:33.614Z,1.10
2019-03-10T09:27:00.911Z,1.05
2019-03-10T09:29:28.313Z,0.70
2019-03-10T09:31:55.410Z,1.20
2019-03-10T09:34:22.445Z,0.70
2019-03-10T09:36:49.748Z,0.62
2019-03-10T09:39:16.806Z,0.60
2019-03-10T09:41:43.848Z,1.85
2019-03-10T09:44:11.200Z,0.70
2019-03-10T09:46:54.782Z,2.67
2019-03-10T09:49:22.989Z,1.05
2019-03-10T09:51:52.170Z,0.55
2019-03-10T09:54:19.428Z,0.50
2019-03-10T09:56:57.892Z,0.78
2019-03-10T10:02:09.547Z,0.75
2019-03-10T10:07:15.621Z,1.20
2019-03-10T10:12:33.581Z,1.02
2019-03-10T10:15:03.780Z,0.60
2019-03-10T10:17:31.961Z,1.17
2019-03-10T10:19:59.228Z,1.22
2019-03-10T10:25:30.397Z,0.60
2019-03-10T10:30:44.528Z,0.70
2019-03-10T10:33:11.835Z,0.50
2019-03-10T10:35:50.206Z,0.78
2019-03-10T10:38:19.436Z,0.40
2019-03-10T10:41:05.674Z,1.62
2019-03-10T10:43:36.510Z,0.85
2019-03-10T10:46:06.032Z,0.50
2019-03-10T10:51:13.834Z,0.40
2019-03-10T10:56:21.885Z,1.98
2019-03-10T11:01:26.754Z,0.55
2019-03-10T11:03:56.322Z,0.90
2019-03-10T11:06:25.101Z,0.50
2019-03-10T11:08:52.691Z,2.50
2019-03-10T11:11:22.970Z,1.50
2019-03-10T11:16:46.062Z,0.57
2019-03-10T11:19:16.646Z,0.60
2019-03-10T11:24:28.151Z,2.45
2019-03-10T11:26:56.405Z,0.50
2019-03-10T11:31:59.445Z,0.60
2019-03-10T11:37:05.914Z,0.70
2019-03-10T11:39:37.723Z,0.70
2019-03-10T11:42:17.780Z,0.53
2019-03-10T11:44:45.341Z,1.32
2019-03-10T11:47:16.279Z,0.95
2019-03-10T11:49:43.479Z,1.15
2019-03-10T11:52:12.011Z,0.88
2019-03-10T12:07:55.687Z,1.20
2019-03-10T12:13:14.155Z,0.85
2019-03-10T12:18:31.798Z,1.40
2019-03-10T12:21:02.337Z,0.88
2019-03-10T12:26:01.962Z,0.50
2019-03-10T12:28:45.368Z,1.40
2019-03-10T12:31:13.002Z,1.45
2019-03-10T12:33:41.486Z,0.30
2019-03-10T12:38:42.060Z,0.57
2019-03-10T12:41:12.716Z,0.62
2019-03-10T12:51:44.525Z,0.40
2019-03-10T12:54:12.781Z,0.53
2019-03-10T12:56:44.455Z,0.30
2019-03-10T12:59:14.659Z,0.53
2019-03-10T13:04:36.066Z,0.40
2019-03-10T13:07:05.578Z,0.35
2019-03-10T13:09:42.151Z,2.05
2019-03-10T13:12:09.347Z,1.12
2019-03-10T13:17:14.247Z,0.40
2019-03-10T13:19:43.472Z,1.25
2019-03-10T13:24:52.097Z,2.55
2019-03-10T13:35:17.805Z,0.40
2019-03-10T13:40:35.858Z,1.50
2019-03-10T13:43:04.032Z,1.27
2019-03-10T13:48:22.190Z,1.15
2019-03-10T13:50:56.464Z,0.98
2019-03-10T13:53:25.706Z,2.55
2019-03-10T13:58:38.350Z,0.78
2019-03-10T14:01:05.579Z,1.67
2019-03-10T14:06:14.439Z,3.35
2019-03-10T14:11:14.876Z,1.30
2019-03-10T14:13:42.136Z,2.50
2019-03-10T14:16:15.408Z,2.47
2019-03-10T14:18:42.674Z,0.72
2019-03-10T14:21:18.253Z,1.32
2019-03-10T14:26:19.154Z,2.55
2019-03-10T14:28:50.642Z,1.87
2019-03-10T14:31:19.475Z,3.27
2019-03-10T14:33:46.675Z,3.87
2019-03-10T14:36:16.983Z,2.95
2019-03-10T14:38:45.177Z,3.75
2019-03-10T14:41:18.760Z,2.62
2019-03-10T14:46:35.200Z,4.05
2019-03-10T14:49:02.447Z,5.03
2019-03-10T14:51:33.777Z,4.33
2019-03-10T14:56:43.052Z,5.72
2019-03-10T15:01:43.490Z,3.77
2019-03-10T15:04:14.679Z,5.28
2019-03-10T15:06:43.675Z,4.30
2019-03-10T15:09:15.596Z,3.92
2019-03-10T15:14:18.195Z,6.17
2019-03-10T15:16:53.515Z,4.05
2019-03-10T15:19:23.876Z,7.05
2019-03-10T15:21:55.302Z,6.17
2019-03-10T15:24:22.564Z,5.92
2019-03-10T15:26:51.737Z,5.17
2019-03-10T15:29:18.913Z,6.08
2019-03-10T15:31:46.141Z,6.75
2019-03-10T15:34:13.771Z,6.70
2019-03-10T15:36:51.400Z,9.70
2019-03-10T15:39:18.934Z,10.32
2019-03-10T15:41:45.980Z,5.30
2019-03-10T15:44:15.244Z,7.47
2019-03-10T15:46:45.807Z,8.53
2019-03-10T15:49:14.034Z,6.62
2019-03-10T15:51:43.203Z,10.38
2019-03-10T15:54:10.485Z,7.08
2019-03-10T15:56:38.533Z,7.53
2019-03-10T15:59:08.126Z,4.75
2019-03-10T16:01:39.663Z,5.00
2019-03-10T16:04:11.131Z,8.83
2019-03-10T16:06:39.320Z,10.50
2019-03-10T16:14:26.994Z,11.65
2019-03-10T16:16:57.314Z,7.92
2019-03-10T16:19:30.783Z,9.45
2019-03-10T16:22:04.088Z,6.50
2019-03-10T16:24:31.167Z,8.63
2019-03-10T16:27:17.348Z,6.83
2019-03-10T16:29:44.398Z,4.80
2019-03-10T16:32:19.436Z,11.28
2019-03-10T16:34:46.957Z,9.78
2019-03-10T16:37:18.244Z,19.05
2019-03-10T16:39:45.512Z,17.48
2019-03-10T16:42:19.529Z,9.40
2019-03-10T16:49:59.991Z,12.28
2019-03-10T16:52:28.467Z,7.95
2019-03-10T16:57:50.705Z,10.23
2019-03-10T17:00:19.959Z,5.62
2019-03-10T17:02:48.794Z,9.83
2019-03-10T17:05:16.216Z,12.78
2019-03-10T17:10:40.574Z,4.10
2019-03-10T17:13:07.840Z,10.45
2019-03-10T17:15:35.114Z,8.35
2019-03-10T17:18:10.611Z,7.40
2019-03-10T17:23:18.939Z,12.23
2019-03-10T17:25:48.187Z,6.28
2019-03-10T17:28:16.736Z,8.93
2019-03-10T17:30:44.949Z,10.23
2019-03-10T17:33:18.219Z,7.05
2019-03-10T17:35:45.855Z,6.33
2019-03-10T17:38:20.600Z,7.00
2019-03-10T17:40:47.657Z,5.78
2019-03-10T17:43:23.819Z,3.20
2019-03-10T17:45:55.800Z,5.25
2019-03-10T17:48:24.259Z,5.95
2019-03-10T17:50:51.313Z,6.97
2019-03-10T17:53:25.739Z,10.58
2019-03-10T17:55:54.949Z,5.78
2019-03-10T17:58:37.532Z,4.03
2019-03-10T18:01:04.708Z,5.10
2019-03-10T18:03:41.849Z,5.17
2019-03-10T18:06:08.913Z,4.85
2019-03-10T18:08:39.153Z,5.42
2019-03-10T18:11:07.215Z,6.55
2019-03-10T18:16:26.992Z,4.28
2019-03-10T18:18:57.448Z,3.65
2019-03-10T18:21:29.788Z,4.15
2019-03-10T18:23:56.973Z,6.75
2019-03-10T18:26:24.603Z,8.15
2019-03-10T18:29:06.191Z,9.58
2019-03-10T18:36:44.946Z,7.35
2019-03-10T18:39:12.714Z,5.00
2019-03-10T18:41:39.838Z,3.40
2019-03-10T18:44:23.667Z,2.90
2019-03-10T18:46:51.926Z,5.95
2019-03-10T18:49:19.262Z,5.72
2019-03-10T18:51:51.118Z,2.85
2019-03-10T18:54:18.451Z,6.40
2019-03-10T18:56:50.795Z,8.98
2019-03-10T18:59:24.149Z,3.35
2019-03-10T19:01:52.337Z,5.87
2019-03-10T19:04:20.263Z,2.37
2019-03-10T19:06:52.023Z,4.58
2019-03-10T19:09:19.197Z,5.97
2019-03-10T19:11:48.779Z,5.30
2019-03-10T19:14:20.220Z,4.50
2019-03-10T19:16:50.882Z,6.60
2019-03-10T19:19:24.736Z,3.50
2019-03-10T19:21:51.973Z,4.30
2019-03-10T19:24:19.994Z,4.40
2019-03-10T19:29:20.865Z,6.97
2019-03-10T19:34:21.390Z,5.37
2019-03-10T19:36:57.452Z,4.05
2019-03-10T19:39:23.474Z,5.08
2019-03-10T19:44:27.921Z,2.65
2019-03-10T19:46:55.474Z,5.40
2019-03-10T19:49:26.645Z,4.87
2019-03-10T19:54:26.904Z,5.70
2019-03-10T19:56:56.105Z,4.10
2019-03-10T19:59:26.208Z,12.47
2019-03-10T20:01:57.627Z,4.00
2019-03-10T20:04:31.883Z,4.45
2019-03-10T20:07:03.140Z,9.18
2019-03-10T20:09:30.460Z,4.58
2019-03-10T20:12:01.127Z,3.15
2019-03-10T20:14:30.514Z,3.85
2019-03-10T20:16:57.681Z,6.80
2019-03-10T20:19:34.511Z,4.15
2019-03-10T20:22:03.759Z,3.87
2019-03-10T20:24:40.382Z,4.65
2019-03-10T20:27:07.583Z,6.53
2019-03-10T20:29:38.066Z,3.85
2019-03-10T20:34:47.984Z,7.10
2019-03-10T20:39:49.087Z,7.25
2019-03-10T20:44:50.194Z,6.62
2019-03-10T20:47:18.830Z,4.42
2019-03-10T20:49:50.388Z,5.33
2019-03-10T20:52:18.610Z,5.08
2019-03-10T20:54:55.159Z,7.80
2019-03-10T20:57:26.845Z,8.90
2019-03-10T21:00:01.336Z,5.05
2019-03-10T21:05:16.711Z,11.00
2019-03-10T21:10:21.610Z,5.53
2019-03-10T21:12:51.164Z,8.93
2019-03-10T21:15:18.405Z,4.47
2019-03-10T21:20:27.275Z,8.05
2019-03-10T21:22:55.843Z,5.90
2019-03-10T21:25:23.603Z,6.92
2019-03-10T21:33:10.249Z,12.98
2019-03-10T21:35:38.451Z,10.45
2019-03-10T21:40:43.933Z,9.40
2019-03-10T21:43:11.336Z,12.00
2019-03-10T21:45:38.694Z,10.10
2019-03-10T21:48:05.746Z,6.28
2019-03-10T21:50:32.786Z,8.85
2019-03-10T21:52:59.905Z,8.40
2019-03-10T21:55:27.297Z,7.55
2019-03-10T21:57:54.522Z,9.30
2019-03-10T22:00:21.553Z,8.53
2019-03-10T22:02:48.613Z,6.17
2019-03-10T22:05:16.005Z,11.90
2019-03-10T22:07:43.354Z,9.18
2019-03-10T22:10:10.389Z,9.50
2019-03-10T22:12:38.617Z,11.63
2019-03-10T22:15:06.727Z,8.95
2019-03-10T22:17:35.407Z,7.20
2019-03-10T22:20:02.794Z,5.95
2019-03-10T22:22:30.378Z,10.40
2019-03-10T22:24:57.713Z,14.30
2019-03-10T22:27:24.752Z,12.40
2019-03-10T22:29:51.807Z,9.13
2019-03-10T22:32:18.842Z,9.23
2019-03-10T22:34:45.899Z,7.85
2019-03-10T22:37:22.203Z,9.20
2019-03-10T22:39:49.254Z,11.65
2019-03-10T22:42:16.297Z,8.70
2019-03-10T22:44:43.718Z,12.37
2019-03-10T22:47:11.079Z,10.95
2019-03-10T22:49:38.127Z,9.53
2019-03-10T22:52:05.166Z,10.23
2019-03-10T22:54:33.547Z,17.37
2019-03-10T22:57:00.591Z,12.10
2019-03-10T22:59:27.951Z,9.00
2019-03-10T23:01:55.306Z,14.53
2019-03-10T23:04:22.795Z,10.75
2019-03-10T23:06:50.118Z,13.08
2019-03-10T23:09:17.251Z,14.87
2019-03-10T23:11:44.729Z,14.85
2019-03-10T23:14:12.097Z,7.45
2019-03-10T23:16:39.453Z,7.55
2019-03-10T23:19:06.792Z,13.78
2019-03-10T23:21:33.898Z,8.35
2019-03-10T23:24:01.293Z,9.53
2019-03-10T23:26:28.658Z,10.40
2019-03-10T23:28:55.717Z,11.83
2019-03-10T23:31:22.852Z,12.05
2019-03-10T23:33:49.912Z,14.28
2019-03-10T23:36:17.251Z,9.63
2019-03-10T23:38:44.303Z,12.73
2019-03-10T23:41:11.592Z,13.28
2019-03-10T23:43:39.013Z,15.90
2019-03-10T23:46:06.366Z,13.83
2019-03-10T23:48:33.724Z,7.97
2019-03-10T23:51:01.010Z,8.18
2019-03-10T23:53:28.329Z,8.85
2019-03-10T23:55:55.685Z,11.53
2019-03-10T23:58:24.071Z,7.83
